createdAt,value
2023-03-12T00:02:21.664Z,4.23
2023-03-12T00:04:48.383Z,4.40
2023-03-12T00:07:15.105Z,4.03
2023-03-12T00:09:41.720Z,4.53
2023-03-12T00:12:09.271Z,3.80
2023-03-12T00:14:36.558Z,4.73
2023-03-12T00:17:03.472Z,4.13
2023-03-12T00:19:30.081Z,3.50
2023-03-12T00:21:56.794Z,3.87
2023-03-12T00:24:23.470Z,3.90
2023-03-12T00:26:50.266Z,4.07
2023-03-12T00:29:17.135Z,3.67
2023-03-12T00:31:43.854Z,4.43
2023-03-12T00:34:10.971Z,3.80
2023-03-12T00:36:38.119Z,3.63
2023-03-12T00:39:05.316Z,3.63
2023-03-12T00:41:32.165Z,3.43
2023-03-12T00:43:58.780Z,2.90
2023-03-12T00:46:25.542Z,3.63
2023-03-12T00:48:52.568Z,3.50
2023-03-12T00:51:20.039Z,3.00
2023-03-12T00:53:46.776Z,3.10
2023-03-12T00:56:13.740Z,2.90
2023-03-12T00:58:42.811Z,3.00
2023-03-12T01:01:09.511Z,2.90
2023-03-12T01:03:36.241Z,3.13
2023-03-12T01:06:02.854Z,2.80
2023-03-12T01:08:30.951Z,2.80
2023-03-12T01:10:57.525Z,2.77
2023-03-12T01:13:24.134Z,2.80
2023-03-12T01:15:50.934Z,2.70
2023-03-12T01:18:17.594Z,2.37
2023-03-12T01:20:44.258Z,3.00
2023-03-12T01:23:11.228Z,2.80
2023-03-12T01:25:38.003Z,2.63
2023-03-12T01:28:04.900Z,2.40
2023-03-12T01:30:32.043Z,2.43
2023-03-12T01:32:59.009Z,2.40
2023-03-12T01:35:26.458Z,2.40
2023-03-12T01:37:53.681Z,2.63
2023-03-12T01:40:25.632Z,2.60
2023-03-12T01:42:54.911Z,2.30
2023-03-12T01:45:52.341Z,2.17
2023-03-12T01:48:20.162Z,2.20
2023-03-12T01:50:47.026Z,2.50
2023-03-12T01:53:13.794Z,2.40
2023-03-12T01:55:41.393Z,2.30
2023-03-12T01:58:10.595Z,2.37
2023-03-12T02:00:37.158Z,2.13
2023-03-12T02:03:07.420Z,2.70
2023-03-12T02:05:43.818Z,2.00
2023-03-12T02:08:13.303Z,1.90
2023-03-12T02:10:40.081Z,2.27
2023-03-12T02:13:07.484Z,2.23
2023-03-12T02:15:35.604Z,2.13
2023-03-12T02:18:07.431Z,2.70
2023-03-12T02:20:46.995Z,2.13
2023-03-12T02:23:18.932Z,2.43
2023-03-12T02:25:49.837Z,2.50
2023-03-12T02:28:18.882Z,2.30
2023-03-12T02:30:48.832Z,2.47
2023-03-12T02:33:16.162Z,2.10
2023-03-12T02:35:45.134Z,2.60
2023-03-12T02:38:36.559Z,2.57
2023-03-12T02:41:16.818Z,2.70
2023-03-12T02:43:56.538Z,2.63
2023-03-12T02:46:23.134Z,2.30
2023-03-12T02:48:49.779Z,2.27
2023-03-12T02:51:16.287Z,2.80
2023-03-12T02:53:42.826Z,2.60
2023-03-12T02:56:09.445Z,2.37
2023-03-12T02:58:37.529Z,2.73
2023-03-12T03:01:04.400Z,2.57
2023-03-12T03:03:30.999Z,3.10
2023-03-12T03:05:57.759Z,3.07
2023-03-12T03:08:24.365Z,2.83
2023-03-12T03:10:52.810Z,2.60
2023-03-12T03:13:19.367Z,2.37
2023-03-12T03:15:46.023Z,2.33
2023-03-12T03:18:12.558Z,2.50
2023-03-12T03:20:39.178Z,2.80
2023-03-12T03:23:05.776Z,2.40
2023-03-12T03:25:33.841Z,2.27
2023-03-12T03:28:00.400Z,2.70
2023-03-12T03:30:27.225Z,2.27
2023-03-12T03:32:53.888Z,2.93
2023-03-12T03:35:22.211Z,2.67
2023-03-12T03:37:48.774Z,2.37
2023-03-12T03:40:16.300Z,2.40
2023-03-12T03:42:42.884Z,2.17
2023-03-12T03:45:09.795Z,2.27
2023-03-12T03:47:36.628Z,2.30
2023-03-12T03:50:04.560Z,2.13
2023-03-12T03:52:31.954Z,2.47
2023-03-12T03:54:59.991Z,2.47
2023-03-12T03:57:27.564Z,2.20
2023-03-12T03:59:54.781Z,2.47
2023-03-12T04:02:21.694Z,2.67
2023-03-12T04:04:48.733Z,2.40
2023-03-12T04:07:15.351Z,2.70
2023-03-12T04:09:42.072Z,2.23
2023-03-12T04:12:09.326Z,2.03
2023-03-12T04:14:38.864Z,1.93
2023-03-12T04:17:05.412Z,2.30
2023-03-12T04:19:32.040Z,2.20
2023-03-12T04:21:58.564Z,2.47
2023-03-12T04:24:25.200Z,2.50
2023-03-12T04:26:51.910Z,2.17
2023-03-12T04:29:19.784Z,2.07
2023-03-12T04:31:46.505Z,2.43
2023-03-12T04:34:14.517Z,2.60
2023-03-12T04:36:41.245Z,2.20
2023-03-12T04:39:07.955Z,1.93
2023-03-12T04:41:35.678Z,2.30
2023-03-12T04:44:02.914Z,2.20
2023-03-12T04:46:29.897Z,2.23
2023-03-12T04:48:58.121Z,2.17
2023-03-12T04:51:25.078Z,2.37
2023-03-12T04:53:51.999Z,2.00
2023-03-12T04:56:18.622Z,2.40
2023-03-12T04:58:45.165Z,2.33
2023-03-12T05:01:24.248Z,1.77
2023-03-12T05:03:51.125Z,2.10
2023-03-12T05:06:17.742Z,2.33
2023-03-12T05:08:44.442Z,2.10
2023-03-12T05:11:11.031Z,2.30
2023-03-12T05:13:37.550Z,2.20
2023-03-12T05:16:04.399Z,2.47
2023-03-12T05:18:31.388Z,2.83
2023-03-12T05:21:00.070Z,2.00
2023-03-12T05:23:27.211Z,1.93
2023-03-12T05:25:53.917Z,2.63
2023-03-12T05:28:20.464Z,2.10
2023-03-12T05:30:47.609Z,2.20
2023-03-12T05:33:14.188Z,2.30
2023-03-12T05:35:40.750Z,2.43
2023-03-12T05:38:07.428Z,2.77
2023-03-12T05:40:33.965Z,2.40
2023-03-12T05:43:00.583Z,2.30
2023-03-12T05:45:27.230Z,2.30
2023-03-12T05:47:53.810Z,2.00
2023-03-12T05:50:20.371Z,2.30
2023-03-12T05:52:46.995Z,2.43
2023-03-12T05:55:14.020Z,2.60
2023-03-12T05:57:40.719Z,2.57
2023-03-12T06:00:08.439Z,3.00
2023-03-12T06:02:35.081Z,2.53
2023-03-12T06:05:01.837Z,2.50
2023-03-12T06:07:28.437Z,2.90
2023-03-12T06:09:54.960Z,2.33
2023-03-12T06:12:21.951Z,2.90
2023-03-12T06:14:48.483Z,2.97
2023-03-12T06:17:15.085Z,2.40
2023-03-12T06:19:41.663Z,2.37
2023-03-12T06:22:08.326Z,2.93
2023-03-12T06:24:35.091Z,2.67
2023-03-12T06:27:01.677Z,2.97
2023-03-12T06:29:28.233Z,2.70
2023-03-12T06:31:56.445Z,2.80
2023-03-12T06:34:23.204Z,2.73
2023-03-12T06:36:49.839Z,2.50
2023-03-12T06:39:16.404Z,2.70
2023-03-12T06:41:43.057Z,2.60
2023-03-12T06:44:09.640Z,2.90
2023-03-12T06:46:37.175Z,2.73
2023-03-12T06:49:03.932Z,2.87
2023-03-12T06:51:30.491Z,2.60
2023-03-12T06:53:57.415Z,3.10
2023-03-12T06:56:23.953Z,2.80
2023-03-12T06:58:51.065Z,2.80
2023-03-12T07:01:17.675Z,4.27
2023-03-12T07:03:44.297Z,3.17
2023-03-12T07:06:19.955Z,2.73
2023-03-12T07:08:46.809Z,3.00
2023-03-12T07:11:13.980Z,3.00
2023-03-12T07:13:41.666Z,3.07
2023-03-12T07:16:10.877Z,3.73
2023-03-12T07:18:37.608Z,3.30
2023-03-12T07:21:04.480Z,3.33
2023-03-12T07:23:31.036Z,2.97
2023-03-12T07:25:57.845Z,3.70
2023-03-12T07:28:24.415Z,3.33
2023-03-12T07:30:50.952Z,3.37
2023-03-12T07:33:21.917Z,3.40
2023-03-12T07:35:51.739Z,3.10
2023-03-12T07:38:18.729Z,3.10
2023-03-12T07:40:45.623Z,3.03
2023-03-12T07:43:12.918Z,2.60
2023-03-12T07:45:40.238Z,3.03
2023-03-12T07:48:07.752Z,3.10
2023-03-12T07:50:35.359Z,3.20
2023-03-12T07:53:01.946Z,2.77
2023-03-12T07:55:28.571Z,3.13
2023-03-12T07:57:58.469Z,3.10
2023-03-12T08:00:27.050Z,3.10
2023-03-12T08:02:54.915Z,2.43
2023-03-12T08:05:24.807Z,2.87
2023-03-12T08:07:52.542Z,2.83
2023-03-12T08:10:20.651Z,3.30
2023-03-12T08:12:47.931Z,2.90
2023-03-12T08:15:15.440Z,3.17
2023-03-12T08:17:42.274Z,2.90
2023-03-12T08:20:10.313Z,3.60
2023-03-12T08:22:38.490Z,3.73
2023-03-12T08:25:06.084Z,3.27
2023-03-12T08:27:34.081Z,3.03
2023-03-12T08:30:01.002Z,3.40
2023-03-12T08:32:27.944Z,3.50
2023-03-12T08:34:54.529Z,3.40
2023-03-12T08:37:21.484Z,4.23
2023-03-12T08:39:47.946Z,3.70
2023-03-12T08:42:14.450Z,3.57
2023-03-12T08:44:41.026Z,4.30
2023-03-12T08:47:07.599Z,3.10
2023-03-12T08:49:34.158Z,3.83
2023-03-12T08:52:00.734Z,3.50
2023-03-12T08:54:27.544Z,4.00
2023-03-12T08:56:56.683Z,3.97
2023-03-12T08:59:23.563Z,4.60
2023-03-12T09:01:50.651Z,4.47
2023-03-12T09:04:17.922Z,5.30
2023-03-12T09:06:44.651Z,4.50
2023-03-12T09:09:11.391Z,5.10
2023-03-12T09:11:39.881Z,5.30
2023-03-12T09:14:46.296Z,5.67
2023-03-12T09:16:54.344Z,4.53
2023-03-12T09:19:21.238Z,5.40
2023-03-12T09:21:47.800Z,4.97
2023-03-12T09:24:14.385Z,5.70
2023-03-12T09:26:40.962Z,5.80
2023-03-12T09:29:07.512Z,5.30
2023-03-12T09:31:34.712Z,5.47
2023-03-12T09:34:01.314Z,6.00
2023-03-12T09:36:28.057Z,5.90
2023-03-12T09:38:55.548Z,5.60
2023-03-12T09:41:26.394Z,6.57
2023-03-12T09:44:07.967Z,5.43
2023-03-12T09:46:40.613Z,6.17
2023-03-12T09:49:17.503Z,6.00
2023-03-12T09:51:49.366Z,6.63
2023-03-12T09:54:24.095Z,7.37
2023-03-12T09:56:52.735Z,6.87
2023-03-12T09:59:19.348Z,7.13
2023-03-12T10:01:59.752Z,6.93
2023-03-12T10:04:59.528Z,7.73
2023-03-12T10:07:35.920Z,7.63
2023-03-12T10:10:27.747Z,7.97
2023-03-12T10:13:22.423Z,7.57
2023-03-12T10:16:08.021Z,6.87
2023-03-12T10:19:04.100Z,8.77
2023-03-12T10:21:34.883Z,8.00
2023-03-12T10:24:25.233Z,8.27
2023-03-12T10:26:55.553Z,7.63
2023-03-12T10:29:27.010Z,7.53
2023-03-12T10:31:56.882Z,8.33
2023-03-12T10:34:28.800Z,7.87
2023-03-12T10:37:00.659Z,8.93
2023-03-12T10:39:27.210Z,8.70
2023-03-12T10:41:53.887Z,9.77
2023-03-12T10:44:24.192Z,8.97
2023-03-12T10:47:00.116Z,9.43
2023-03-12T10:49:30.454Z,10.37
2023-03-12T10:52:16.657Z,10.40
2023-03-12T10:54:45.917Z,11.87
2023-03-12T10:57:15.270Z,12.63
2023-03-12T10:59:44.697Z,12.20
2023-03-12T11:02:34.068Z,11.87
2023-03-12T11:05:02.655Z,11.73
2023-03-12T11:07:35.457Z,12.90
2023-03-12T11:10:08.795Z,12.63
2023-03-12T11:12:38.249Z,14.53
2023-03-12T11:15:22.558Z,14.60
2023-03-12T11:17:49.420Z,14.37
2023-03-12T11:20:34.125Z,14.60
2023-03-12T11:23:14.852Z,15.20
2023-03-12T11:25:41.379Z,14.40
2023-03-12T11:28:17.486Z,13.17
2023-03-12T11:30:44.731Z,13.67
2023-03-12T11:33:12.465Z,14.30
2023-03-12T11:36:08.705Z,13.50
2023-03-12T11:38:45.791Z,14.13
2023-03-12T11:41:41.822Z,15.40
2023-03-12T11:44:15.683Z,16.40
2023-03-12T11:47:18.470Z,16.13
2023-03-12T11:50:03.344Z,14.73
2023-03-12T11:52:45.367Z,15.10
2023-03-12T11:55:20.540Z,16.43
2023-03-12T11:57:50.187Z,17.73
2023-03-12T12:00:18.988Z,19.20
2023-03-12T12:02:51.452Z,16.73
2023-03-12T12:05:35.958Z,16.40
2023-03-12T12:08:14.650Z,14.83
2023-03-12T12:10:52.608Z,14.03
2023-03-12T12:13:40.984Z,13.30
2023-03-12T12:16:47.077Z,14.03
2023-03-12T12:19:24.043Z,12.90
2023-03-12T12:22:20.739Z,13.93
2023-03-12T12:24:50.128Z,15.40
2023-03-12T12:27:36.839Z,14.83
2023-03-12T12:30:12.195Z,15.67
2023-03-12T12:33:03.724Z,15.67
2023-03-12T12:35:36.900Z,14.53
2023-03-12T12:38:13.726Z,14.73
2023-03-12T12:40:49.320Z,16.13
2023-03-12T12:43:28.166Z,15.90
2023-03-12T12:46:02.369Z,15.03
2023-03-12T12:48:43.655Z,14.50
2023-03-12T12:51:12.844Z,17.10
2023-03-12T12:53:39.321Z,15.47
2023-03-12T12:56:28.233Z,15.17
2023-03-12T12:59:25.089Z,16.60
2023-03-12T13:01:55.025Z,17.00
2023-03-12T13:04:35.734Z,18.63
2023-03-12T13:07:20.656Z,18.53
2023-03-12T13:09:52.718Z,17.97
2023-03-12T13:12:25.366Z,17.30
2023-03-12T13:14:54.911Z,17.27
2023-03-12T13:17:21.894Z,15.83
2023-03-12T13:19:59.062Z,14.23
2023-03-12T13:22:53.906Z,13.43
2023-03-12T13:25:29.654Z,12.93
2023-03-12T13:28:32.779Z,12.40
2023-03-12T13:31:01.359Z,10.97
2023-03-12T13:33:48.821Z,10.70
2023-03-12T13:36:15.382Z,10.93
2023-03-12T13:38:54.270Z,10.23
2023-03-12T13:41:37.594Z,10.90
2023-03-12T13:44:22.475Z,10.47
2023-03-12T13:47:10.881Z,9.77
2023-03-12T13:49:44.370Z,9.17
2023-03-12T13:52:14.332Z,9.67
2023-03-12T13:54:47.743Z,10.03
2023-03-12T13:57:41.741Z,8.73
2023-03-12T14:00:31.350Z,8.53
2023-03-12T14:03:06.325Z,8.63
2023-03-12T14:05:44.737Z,8.83
2023-03-12T14:08:43.561Z,8.10
2023-03-12T14:11:22.151Z,7.43
2023-03-12T14:14:27.275Z,7.30
2023-03-12T14:16:59.817Z,7.37
2023-03-12T14:19:29.194Z,7.57
2023-03-12T14:21:57.765Z,7.97
2023-03-12T14:24:28.946Z,7.97
2023-03-12T14:26:57.718Z,7.53
2023-03-12T14:29:33.403Z,8.17
2023-03-12T14:32:04.577Z,8.23
2023-03-12T14:34:39.744Z,7.50
2023-03-12T14:37:30.703Z,7.03
2023-03-12T14:40:23.388Z,7.83
2023-03-12T14:42:50.072Z,8.50
2023-03-12T14:45:23.417Z,9.63
2023-03-12T14:47:55.924Z,8.23
2023-03-12T14:50:36.919Z,8.50
2023-03-12T14:53:28.068Z,8.60
2023-03-12T14:56:13.725Z,8.97
2023-03-12T14:58:49.068Z,7.53
2023-03-12T15:01:20.563Z,7.23
2023-03-12T15:03:50.816Z,7.37
2023-03-12T15:06:24.872Z,6.63
2023-03-12T15:08:51.479Z,8.33
2023-03-12T15:11:24.749Z,6.17
2023-03-12T15:13:54.592Z,7.20
2023-03-12T15:16:22.483Z,6.47
2023-03-12T15:18:50.325Z,6.90
2023-03-12T15:21:17.306Z,6.93
2023-03-12T15:23:46.645Z,6.77
2023-03-12T15:26:29.194Z,7.67
2023-03-12T15:29:14.072Z,7.10
2023-03-12T15:31:49.041Z,5.83
2023-03-12T15:34:36.269Z,6.43
2023-03-12T15:37:23.574Z,6.07
2023-03-12T15:39:52.828Z,6.37
2023-03-12T15:42:24.183Z,5.97
2023-03-12T15:44:56.966Z,6.27
2023-03-12T15:47:39.505Z,5.90
2023-03-12T15:50:20.719Z,5.63
2023-03-12T15:53:11.406Z,6.10
2023-03-12T15:55:39.522Z,5.50
2023-03-12T15:58:24.119Z,5.90
2023-03-12T16:00:54.286Z,6.23
2023-03-12T16:03:22.149Z,6.00
2023-03-12T16:05:51.540Z,6.70
2023-03-12T16:08:26.580Z,6.87
2023-03-12T16:10:53.722Z,8.23
2023-03-12T16:13:26.571Z,8.30
2023-03-12T16:15:53.314Z,6.93
2023-03-12T16:18:21.735Z,6.70
2023-03-12T16:20:50.165Z,6.40
2023-03-12T16:23:17.172Z,6.10
2023-03-12T16:25:50.324Z,5.57
2023-03-12T16:28:20.026Z,6.10
2023-03-12T16:30:46.882Z,5.47
2023-03-12T16:33:16.380Z,6.00
2023-03-12T16:35:43.544Z,6.03
2023-03-12T16:38:10.224Z,5.97
2023-03-12T16:40:44.978Z,5.00
2023-03-12T16:43:17.562Z,6.03
2023-03-12T16:45:46.919Z,5.70
2023-03-12T16:48:16.988Z,6.03
2023-03-12T16:50:52.054Z,6.53
2023-03-12T16:53:18.967Z,6.80
2023-03-12T16:55:49.777Z,6.00
2023-03-12T16:58:18.691Z,6.93
2023-03-12T17:00:46.904Z,6.80
2023-03-12T17:03:20.137Z,6.80
2023-03-12T17:05:46.675Z,6.63
2023-03-12T17:08:16.268Z,6.90
2023-03-12T17:10:42.857Z,7.97
2023-03-12T17:13:21.495Z,7.70
2023-03-12T17:15:49.052Z,8.70
2023-03-12T17:18:15.847Z,8.00
2023-03-12T17:20:42.959Z,8.27
2023-03-12T17:23:09.795Z,8.73
2023-03-12T17:25:39.127Z,8.20
2023-03-12T17:28:06.393Z,6.83
2023-03-12T17:30:34.329Z,7.07
2023-03-12T17:33:04.779Z,6.90
2023-03-12T17:35:31.828Z,8.23
2023-03-12T17:37:58.805Z,8.40
2023-03-12T17:40:25.572Z,7.87
2023-03-12T17:42:52.140Z,7.80
2023-03-12T17:45:18.930Z,8.07
2023-03-12T17:47:45.553Z,8.20
2023-03-12T17:50:13.296Z,6.20
2023-03-12T17:52:40.414Z,6.80
2023-03-12T17:55:10.504Z,6.20
2023-03-12T17:57:38.912Z,6.77
2023-03-12T18:00:12.780Z,6.20
2023-03-12T18:02:40.756Z,6.47
2023-03-12T18:05:08.595Z,6.37
2023-03-12T18:07:35.221Z,6.27
2023-03-12T18:10:01.920Z,5.60
2023-03-12T18:12:28.421Z,6.37
2023-03-12T18:14:55.049Z,6.03
2023-03-12T18:17:21.698Z,6.17
2023-03-12T18:19:48.193Z,6.53
2023-03-12T18:22:15.219Z,5.70
2023-03-12T18:24:42.418Z,5.70
2023-03-12T18:27:09.039Z,6.93
2023-03-12T18:29:36.938Z,5.67
2023-03-12T18:32:04.281Z,5.97
2023-03-12T18:34:32.576Z,6.30
2023-03-12T18:37:02.247Z,6.47
2023-03-12T18:39:28.776Z,6.47
2023-03-12T18:42:00.637Z,5.73
2023-03-12T18:44:30.249Z,5.80
2023-03-12T18:46:56.869Z,6.77
2023-03-12T18:49:26.686Z,5.97
2023-03-12T18:51:57.739Z,5.90
2023-03-12T18:54:26.080Z,5.90
2023-03-12T18:56:52.641Z,5.90
2023-03-12T18:59:21.573Z,5.97
2023-03-12T19:01:48.273Z,5.43
2023-03-12T19:04:19.568Z,6.27
2023-03-12T19:06:51.986Z,5.77
2023-03-12T19:09:19.355Z,5.83
2023-03-12T19:11:49.520Z,6.37
2023-03-12T19:14:16.383Z,5.70
2023-03-12T19:16:43.159Z,5.53
2023-03-12T19:19:09.730Z,5.73
2023-03-12T19:21:36.303Z,6.93
2023-03-12T19:24:02.930Z,5.47
2023-03-12T19:26:29.641Z,6.07
2023-03-12T19:28:56.171Z,5.83
2023-03-12T19:31:22.866Z,5.60
2023-03-12T19:33:49.444Z,6.00
2023-03-12T19:36:15.932Z,6.40
2023-03-12T19:38:42.416Z,6.10
2023-03-12T19:41:09.243Z,7.20
2023-03-12T19:43:37.093Z,8.00
2023-03-12T19:46:04.395Z,9.83
2023-03-12T19:48:31.316Z,8.83
2023-03-12T19:50:57.865Z,8.60
2023-03-12T19:53:24.900Z,8.50
2023-03-12T19:55:51.828Z,7.50
2023-03-12T19:58:18.317Z,8.20
2023-03-12T20:00:45.123Z,7.47
2023-03-12T20:03:11.812Z,7.23
2023-03-12T20:05:38.385Z,8.00
2023-03-12T20:08:05.075Z,7.93
2023-03-12T20:10:32.408Z,7.60
2023-03-12T20:12:58.992Z,6.97
2023-03-12T20:15:26.375Z,8.10
2023-03-12T20:17:54.973Z,7.57
2023-03-12T20:20:21.537Z,7.57
2023-03-12T20:22:48.337Z,6.87
2023-03-12T20:25:14.939Z,6.57
2023-03-12T20:27:41.461Z,5.57
2023-03-12T20:30:08.835Z,4.93
2023-03-12T20:32:35.563Z,4.80
2023-03-12T20:35:02.128Z,5.57
2023-03-12T20:37:28.974Z,5.53
2023-03-12T20:39:55.552Z,5.43
2023-03-12T20:42:22.083Z,6.43
2023-03-12T20:44:53.504Z,6.77
2023-03-12T20:47:20.012Z,5.77
2023-03-12T20:49:46.636Z,5.50
2023-03-12T20:52:13.121Z,6.43
2023-03-12T20:54:39.613Z,5.10
2023-03-12T20:57:06.137Z,6.37
2023-03-12T20:59:32.946Z,5.90
2023-03-12T21:01:59.507Z,5.63
2023-03-12T21:04:26.136Z,5.80
2023-03-12T21:06:52.725Z,5.57
2023-03-12T21:09:22.341Z,5.90
2023-03-12T21:11:49.530Z,5.97
2023-03-12T21:14:16.215Z,6.50
2023-03-12T21:16:42.785Z,5.00
2023-03-12T21:19:09.344Z,5.60
2023-03-12T21:21:36.885Z,5.70
2023-03-12T21:24:03.797Z,5.20
2023-03-12T21:26:30.672Z,5.40
2023-03-12T21:28:57.206Z,5.77
2023-03-12T21:31:24.257Z,5.50
2023-03-12T21:33:54.760Z,5.60
2023-03-12T21:36:25.947Z,5.33
2023-03-12T21:38:53.663Z,5.70
2023-03-12T21:41:21.059Z,4.90
2023-03-12T21:43:48.005Z,5.07
2023-03-12T21:46:19.079Z,5.27
2023-03-12T21:48:48.108Z,4.97
2023-03-12T21:51:16.836Z,5.37
2023-03-12T21:53:43.778Z,6.10
2023-03-12T21:56:11.587Z,5.37
2023-03-12T21:58:38.351Z,4.93
2023-03-12T22:01:10.478Z,4.97
2023-03-12T22:03:38.173Z,4.97
2023-03-12T22:06:05.595Z,5.53
2023-03-12T22:08:32.556Z,5.83
2023-03-12T22:10:59.435Z,5.60
2023-03-12T22:13:26.071Z,5.63
2023-03-12T22:15:58.184Z,5.37
2023-03-12T22:18:25.362Z,5.47
2023-03-12T22:21:03.190Z,5.33
2023-03-12T22:23:30.682Z,6.20
2023-03-12T22:26:01.472Z,5.80
2023-03-12T22:28:27.972Z,5.60
2023-03-12T22:31:03.230Z,4.90
2023-03-12T22:33:30.386Z,5.47
2023-03-12T22:35:58.045Z,4.53
2023-03-12T22:38:25.055Z,5.23
2023-03-12T22:40:53.755Z,4.80
2023-03-12T22:43:22.018Z,5.20
2023-03-12T22:45:53.164Z,5.00
2023-03-12T22:48:19.801Z,4.70
2023-03-12T22:50:53.690Z,5.33
2023-03-12T22:53:20.409Z,6.03
2023-03-12T22:55:47.053Z,3.70
2023-03-12T22:58:15.061Z,5.17
2023-03-12T23:00:41.641Z,4.90
2023-03-12T23:03:08.224Z,4.70
2023-03-12T23:05:44.003Z,4.50
2023-03-12T23:08:10.520Z,4.43
2023-03-12T23:10:37.342Z,5.67
2023-03-12T23:13:03.903Z,4.40
2023-03-12T23:15:40.414Z,4.20
2023-03-12T23:18:07.523Z,4.17
2023-03-12T23:20:34.253Z,4.97
2023-03-12T23:23:00.781Z,3.70
2023-03-12T23:25:27.362Z,4.47
2023-03-12T23:27:53.975Z,4.30
2023-03-12T23:30:20.969Z,3.97
2023-03-12T23:32:47.621Z,4.77
2023-03-12T23:35:14.402Z,3.93
2023-03-12T23:37:41.059Z,4.20
2023-03-12T23:40:10.862Z,3.60
2023-03-12T23:42:40.185Z,3.90
2023-03-12T23:45:07.294Z,4.10
2023-03-12T23:47:33.916Z,4.83
2023-03-12T23:50:00.915Z,4.43
2023-03-12T23:52:27.496Z,3.63
2023-03-12T23:54:54.208Z,3.60
2023-03-12T23:57:20.752Z,3.97
2023-03-12T23:59:47.261Z,4.00
